Antioch, Texas
Current Conditions -  °F | °C
As of 11:55 PM on Thursday 27 Nov 2014 (Local Time) from KOCH Reporting Station
Clear Clear  
Wind Chill: 34°   Ceiling: Unl
Heat Index: 34°   Visibility: 10mi
Dew Point: 30°   Wind: 3mph
Humidity: 87%   Direction: 90°E
Pressure: 30.41"   Gusts: NA
Location:  31.8636°N, 94.3909°W
Report Text: KOCH 280555Z AUTO 09003KT 10SM CLR 01/M01 A3041 RMK AO1 10090 20010 401700010 57007
Loading
Personal Weather Stations






























Interactive Weather Map New forecast layout! Learn more

10-Day Weather Forecast

Advertisements
Track Severe Weather on mobile